Time;durP1;ratioP1;P1;durP2;ratioP2;P2;SDS_P1;SDS_P2;PMS_P1;PMS_P2;Temp;Humidity;BMP_temperature;BMP_pressure;BME280_temperature;BME280_humidity;BME280_pressure;Samples;Min_cycle;Max_cycle;Signal;HPM_P1;HPM_P2
2022/11/26 00:00:42;;;;;;;29.50;10.30;;;10.60;78.90;;;;;;2346340;57;21529;-51
2022/11/26 00:03:10;;;;;;;23.73;10.48;;;10.60;78.80;;;;;;2346544;57;21054;-52
2022/11/26 00:05:39;;;;;;;26.15;9.95;;;10.60;78.90;;;;;;2346822;57;21097;-49
2022/11/26 00:08:18;;;;;;;34.40;10.68;;;10.60;78.60;;;;;;2345385;57;21545;-53
2022/11/26 00:10:46;;;;;;;27.77;9.95;;;10.60;78.80;;;;;;2345456;57;21521;-52
2022/11/26 00:13:16;;;;;;;24.35;11.07;;;10.60;78.50;;;;;;2346182;57;21597;-53
2022/11/26 00:15:44;;;;;;;30.33;10.70;;;10.50;78.60;;;;;;2346300;57;21533;-52
2022/11/26 00:18:13;;;;;;;22.25;10.13;;;10.50;78.80;;;;;;2346267;57;21105;-53
2022/11/26 00:20:41;;;;;;;29.37;11.57;;;10.50;79.00;;;;;;2346005;57;21113;-54
2022/11/26 00:25:54;;;;;;;30.70;10.75;;;10.40;79.20;;;;;;2296171;58;22252;-50
2022/11/26 00:28:27;;;;;;;32.65;10.52;;;10.40;79.30;;;;;;2293268;58;21538;-52
2022/11/26 00:30:55;;;;;;;30.90;10.98;;;10.40;79.40;;;;;;2292375;58;21546;-53
2022/11/26 00:33:22;;;;;;;24.40;9.82;;;10.40;79.40;;;;;;2292148;58;21747;-51
2022/11/26 00:35:51;;;;;;;35.38;11.57;;;10.30;79.20;;;;;;2292364;58;22073;-53
2022/11/26 00:38:20;;;;;;;23.20;10.65;;;10.30;79.20;;;;;;2292060;58;21118;-57
2022/11/26 00:40:48;;;;;;;28.02;11.57;;;10.30;79.90;;;;;;2291331;58;21550;-49
2022/11/26 00:43:16;;;;;;;22.42;9.82;;;10.30;79.20;;;;;;2292648;58;21078;-56
2022/11/26 00:45:46;;;;;;;45.33;13.10;;;10.30;79.30;;;;;;2292662;58;21134;-53
2022/11/26 00:48:14;;;;;;;32.28;11.23;;;10.30;79.10;;;;;;2292393;58;21145;-55
2022/11/26 00:50:45;;;;;;;31.35;12.10;;;10.30;79.20;;;;;;2292149;58;21650;-51
2022/11/26 00:53:15;;;;;;;34.35;12.10;;;10.20;79.30;;;;;;2291974;58;21106;-52
2022/11/26 00:55:46;;;;;;;31.17;12.48;;;10.20;79.30;;;;;;2290885;58;21047;-50
2022/11/26 00:58:22;;;;;;;38.08;13.02;;;10.20;79.40;;;;;;2291653;58;22208;-52
2022/11/26 01:00:50;;;;;;;28.85;11.73;;;10.20;79.50;;;;;;2293316;58;21090;-49
2022/11/26 01:03:17;;;;;;;27.27;10.98;;;10.20;79.40;;;;;;2293217;58;21042;-52
2022/11/26 01:05:47;;;;;;;33.95;12.15;;;10.10;79.60;;;;;;2292679;58;21114;-52
2022/11/26 01:08:19;;;;;;;24.45;10.48;;;10.10;79.60;;;;;;2292013;58;21069;-48
2022/11/26 01:10:47;;;;;;;24.92;10.07;;;10.10;79.70;;;;;;2291954;58;21078;-50
2022/11/26 01:13:14;;;;;;;26.27;11.48;;;10.10;79.60;;;;;;2291524;58;21070;-48
2022/11/26 01:15:41;;;;;;;28.73;11.23;;;10.10;79.70;;;;;;2292247;58;21610;-49
2022/11/26 01:18:13;;;;;;;32.97;12.27;;;10.10;79.90;;;;;;2292643;58;21059;-50
2022/11/26 01:20:40;;;;;;;34.60;12.95;;;10.10;79.90;;;;;;2292509;58;21070;-51
2022/11/26 01:23:11;;;;;;;26.35;11.73;;;10.10;79.70;;;;;;2292145;58;21558;-49
2022/11/26 01:25:39;;;;;;;30.10;12.00;;;10.10;79.80;;;;;;2291962;58;21582;-53
2022/11/26 01:28:09;;;;;;;28.33;12.57;;;10.00;79.80;;;;;;2291214;58;21362;-53
2022/11/26 01:30:37;;;;;;;28.67;11.45;;;10.10;79.80;;;;;;2292076;58;21121;-50
2022/11/26 01:33:04;;;;;;;30.70;10.77;;;10.10;79.90;;;;;;2292149;58;21063;-52
2022/11/26 01:35:31;;;;;;;27.98;10.52;;;10.10;79.80;;;;;;2291260;58;21142;-54
2022/11/26 01:37:58;;;;;;;33.63;12.10;;;10.10;79.80;;;;;;2291147;58;21050;-50
2022/11/26 01:40:54;;;;;;;27.60;12.43;;;10.00;79.80;;;;;;2291276;58;21071;-49
2022/11/26 01:43:26;;;;;;;26.45;11.45;;;10.00;80.00;;;;;;2291259;58;21062;-53
2022/11/26 01:45:54;;;;;;;27.42;12.15;;;10.00;79.90;;;;;;2290206;58;21063;-54
2022/11/26 01:48:27;;;;;;;37.90;11.48;;;10.00;80.00;;;;;;2291178;58;21526;-49
2022/11/26 01:51:01;;;;;;;30.05;12.10;;;9.90;80.10;;;;;;2290887;58;21122;-52
2022/11/26 01:53:42;;;;;;;31.95;11.52;;;10.00;80.00;;;;;;2291117;58;21205;-54
2022/11/26 01:59:21;;;;;;;34.60;12.18;;;10.00;80.30;;;;;;2356234;57;22596;-53
2022/11/26 02:01:49;;;;;;;35.55;12.77;;;10.00;80.00;;;;;;2347114;57;21585;-51
2022/11/26 02:04:19;;;;;;;26.00;12.27;;;9.90;80.10;;;;;;2347425;57;21518;-51
2022/11/26 02:06:49;;;;;;;30.62;11.80;;;9.90;80.10;;;;;;2346189;57;22273;-51
2022/11/26 02:09:17;;;;;;;27.83;11.27;;;9.90;80.20;;;;;;2345665;57;21098;-54
2022/11/26 02:11:45;;;;;;;32.45;12.80;;;9.90;80.20;;;;;;2344991;57;21565;-55
2022/11/26 02:14:15;;;;;;;45.25;15.07;;;10.00;80.20;;;;;;2346920;57;21877;-52
2022/11/26 02:16:55;;;;;;;36.92;14.23;;;9.90;80.00;;;;;;2346503;57;21014;-53
2022/11/26 02:19:44;;;;;;;34.67;12.65;;;9.90;80.00;;;;;;2346750;57;21018;-56
2022/11/26 02:22:25;;;;;;;33.53;13.50;;;9.90;80.10;;;;;;2345654;57;22044;-49
2022/11/26 02:25:04;;;;;;;40.05;13.93;;;10.00;80.20;;;;;;2345880;57;21621;-56
2022/11/26 02:28:27;;;;;;;40.05;13.80;;;10.00;80.20;;;;;;2345774;57;21542;-56
2022/11/26 02:30:59;;;;;;;34.92;12.75;;;10.00;80.20;;;;;;2345523;57;22117;-50
2022/11/26 02:33:33;;;;;;;38.25;13.80;;;10.00;80.00;;;;;;2346076;57;21034;-53
2022/11/26 02:36:06;;;;;;;31.90;13.75;;;9.90;80.10;;;;;;2346246;57;21495;-51
2022/11/26 02:38:37;;;;;;;37.75;14.90;;;9.90;80.30;;;;;;2345809;57;21634;-54
2022/11/26 02:41:04;;;;;;;40.88;13.38;;;9.90;80.30;;;;;;2345706;57;21538;-49
2022/11/26 02:43:33;;;;;;;40.25;15.65;;;9.90;80.50;;;;;;2345685;57;21081;-52
2022/11/26 02:48:43;;;;;;;34.10;15.10;;;9.90;80.60;;;;;;2355410;57;22573;-54
2022/11/26 02:51:15;;;;;;;39.15;14.30;;;9.90;80.70;;;;;;2346997;57;21628;-53
2022/11/26 02:53:45;;;;;;;40.35;15.00;;;9.90;80.80;;;;;;2347383;57;22096;-51
2022/11/26 02:56:18;;;;;;;40.47;14.60;;;9.90;80.80;;;;;;2355022;56;21652;-54
2022/11/26 02:58:46;;;;;;;30.58;13.15;;;9.90;80.90;;;;;;2374982;56;21535;-54
2022/11/26 03:01:18;;;;;;;34.35;14.25;;;9.90;80.80;;;;;;2374625;56;21095;-53
2022/11/26 03:03:49;;;;;;;31.33;12.43;;;10.00;80.90;;;;;;2373267;56;21127;-54
2022/11/26 03:06:18;;;;;;;40.45;15.05;;;10.00;81.50;;;;;;2374673;56;21028;-50
2022/11/26 03:08:45;;;;;;;38.33;14.35;;;10.00;80.70;;;;;;2374902;56;21016;-51
2022/11/26 03:11:12;;;;;;;32.08;13.23;;;10.00;80.60;;;;;;2375266;56;21627;-50
2022/11/26 03:13:39;;;;;;;42.80;15.60;;;10.00;80.40;;;;;;2375449;56;21063;-55
2022/11/26 03:16:07;;;;;;;35.33;13.50;;;10.00;81.10;;;;;;2374737;56;21104;-49
2022/11/26 03:21:11;;;;;;;32.65;13.77;;;10.00;80.40;;;;;;2355098;57;22078;-53
2022/11/26 03:23:38;;;;;;;31.37;12.70;;;10.10;80.60;;;;;;2347274;57;21053;-56
2022/11/26 03:26:05;;;;;;;29.75;12.77;;;10.00;80.60;;;;;;2346427;57;21097;-54
2022/11/26 03:28:33;;;;;;;30.85;12.45;;;10.00;80.60;;;;;;2345878;57;21057;-49
2022/11/26 03:31:00;;;;;;;28.70;13.02;;;10.00;80.60;;;;;;2345690;57;21541;-52
2022/11/26 03:33:27;;;;;;;36.45;14.20;;;10.00;80.20;;;;;;2345804;57;21090;-51
2022/11/26 03:35:55;;;;;;;27.02;11.68;;;10.00;80.20;;;;;;2345064;57;21054;-51
2022/11/26 03:38:22;;;;;;;21.70;10.75;;;10.00;80.30;;;;;;2345078;57;21050;-56
2022/11/26 03:40:56;;;;;;;30.88;11.60;;;10.00;80.40;;;;;;2345851;57;21119;-52
2022/11/26 03:43:23;;;;;;;33.15;12.77;;;10.00;80.40;;;;;;2345736;57;21101;-55
2022/11/26 03:45:51;;;;;;;33.83;11.85;;;10.00;80.30;;;;;;2345551;57;21573;-55
2022/11/26 03:48:18;;;;;;;26.50;10.55;;;10.00;80.30;;;;;;2346457;57;21034;-52
2022/11/26 03:50:45;;;;;;;34.08;11.48;;;10.00;80.40;;;;;;2346304;57;21085;-52
2022/11/26 03:53:12;;;;;;;37.15;12.73;;;10.00;80.40;;;;;;2343703;57;21058;-53
2022/11/26 03:55:39;;;;;;;37.42;11.85;;;10.00;80.30;;;;;;2344721;57;21101;-52
2022/11/26 03:58:06;;;;;;;31.90;11.12;;;10.00;80.20;;;;;;2345841;57;21042;-53
2022/11/26 04:00:34;;;;;;;23.85;10.57;;;10.00;80.20;;;;;;2345949;57;21109;-51
2022/11/26 04:03:01;;;;;;;25.58;10.88;;;10.00;79.90;;;;;;2345651;57;21049;-51
2022/11/26 04:05:28;;;;;;;27.52;11.27;;;10.00;79.80;;;;;;2345660;57;21538;-53
2022/11/26 04:07:55;;;;;;;33.08;11.20;;;10.00;79.90;;;;;;2345162;57;21061;-50
2022/11/26 04:10:23;;;;;;;29.27;11.35;;;10.00;79.90;;;;;;2345427;57;21034;-50
2022/11/26 04:12:50;;;;;;;25.30;11.10;;;9.90;79.60;;;;;;2345473;57;21121;-54
2022/11/26 04:15:17;;;;;;;21.33;10.45;;;9.90;79.50;;;;;;2345611;57;21636;-54
2022/11/26 04:17:44;;;;;;;25.17;10.48;;;9.90;79.60;;;;;;2345510;57;21668;-53
2022/11/26 04:20:12;;;;;;;16.98;8.98;;;9.90;79.60;;;;;;2345742;57;21561;-49
2022/11/26 04:22:41;;;;;;;19.30;9.20;;;9.90;79.50;;;;;;2345631;57;21041;-53
2022/11/26 04:25:09;;;;;;;21.87;9.75;;;9.90;79.60;;;;;;2345683;57;21587;-53
2022/11/26 04:27:36;;;;;;;18.02;9.55;;;9.90;79.50;;;;;;2345749;57;21117;-51
2022/11/26 04:30:05;;;;;;;15.63;8.93;;;9.90;79.50;;;;;;2345708;57;21042;-57
2022/11/26 04:32:32;;;;;;;26.62;10.70;;;9.90;79.50;;;;;;2344030;57;21109;-50
2022/11/26 04:34:59;;;;;;;15.48;9.18;;;9.90;79.40;;;;;;2344750;57;21070;-56
2022/11/26 04:37:26;;;;;;;24.17;9.90;;;9.90;79.20;;;;;;2344570;57;21050;-48
2022/11/26 04:39:54;;;;;;;18.70;9.10;;;9.90;79.20;;;;;;2344738;57;21053;-53
2022/11/26 04:42:21;;;;;;;17.55;9.52;;;9.80;79.10;;;;;;2344606;57;21062;-51
2022/11/26 04:44:48;;;;;;;26.92;10.13;;;9.90;79.00;;;;;;2344971;57;21030;-54
2022/11/26 04:47:15;;;;;;;34.92;10.77;;;9.90;79.00;;;;;;2344521;57;21183;-50
2022/11/26 04:49:42;;;;;;;24.85;10.20;;;9.90;78.90;;;;;;2344389;57;21568;-48
2022/11/26 04:52:10;;;;;;;21.08;10.05;;;9.90;78.90;;;;;;2344651;57;21133;-53
2022/11/26 04:54:37;;;;;;;20.23;10.02;;;9.80;79.00;;;;;;2344801;57;21037;-52
2022/11/26 04:57:04;;;;;;;17.83;8.88;;;9.80;79.10;;;;;;2344220;57;21553;-54
2022/11/26 04:59:32;;;;;;;23.08;9.57;;;9.80;79.10;;;;;;2344901;57;21110;-53
2022/11/26 05:01:59;;;;;;;22.75;9.35;;;9.80;79.00;;;;;;2345120;57;21089;-49
2022/11/26 05:04:26;;;;;;;28.38;11.27;;;9.80;79.10;;;;;;2345061;57;21054;-55
2022/11/26 05:06:53;;;;;;;23.27;9.73;;;9.80;79.00;;;;;;2344611;57;21097;-52
2022/11/26 05:09:21;;;;;;;21.65;8.75;;;9.80;79.10;;;;;;2344950;57;21093;-54
2022/11/26 05:11:48;;;;;;;17.23;8.20;;;9.80;79.30;;;;;;2344813;57;21538;-51
2022/11/26 05:14:16;;;;;;;17.12;8.18;;;9.80;79.50;;;;;;2344260;57;21035;-55
2022/11/26 05:16:44;;;;;;;11.85;8.10;;;9.80;79.70;;;;;;2345960;57;21038;-56
2022/11/26 05:19:11;;;;;;;25.45;10.82;;;9.80;79.80;;;;;;2346148;57;21089;-52
2022/11/26 05:21:38;;;;;;;27.48;11.88;;;9.80;79.80;;;;;;2345439;57;21027;-53
2022/11/26 05:24:06;;;;;;;25.65;12.15;;;9.80;79.70;;;;;;2344887;57;21050;-53
2022/11/26 05:26:34;;;;;;;24.95;11.27;;;9.80;79.70;;;;;;2344470;57;21644;-50
2022/11/26 05:29:01;;;;;;;26.48;12.20;;;9.80;79.90;;;;;;2344606;57;21053;-53
2022/11/26 05:31:28;;;;;;;20.55;11.50;;;9.80;79.90;;;;;;2344643;57;21049;-49
2022/11/26 05:33:56;;;;;;;29.17;12.25;;;9.80;79.70;;;;;;2344348;57;21557;-49
2022/11/26 05:36:24;;;;;;;62.62;15.13;;;9.80;79.70;;;;;;2344318;57;21082;-48
2022/11/26 05:38:51;;;;;;;32.60;12.88;;;9.80;79.60;;;;;;2345423;57;21110;-51
2022/11/26 05:41:18;;;;;;;51.17;14.43;;;9.80;79.50;;;;;;2344646;57;21054;-48
2022/11/26 05:43:45;;;;;;;22.00;12.43;;;9.80;79.60;;;;;;2344234;57;21609;-51
2022/11/26 05:46:16;;;;;;;29.80;11.52;;;9.80;79.70;;;;;;2344979;57;21045;-49
2022/11/26 05:48:44;;;;;;;28.27;11.88;;;9.80;79.50;;;;;;2344656;57;21184;-50
2022/11/26 05:51:11;;;;;;;24.05;11.95;;;9.80;79.50;;;;;;2343997;57;21057;-52
2022/11/26 05:53:38;;;;;;;24.58;10.70;;;9.80;79.60;;;;;;2344417;57;21026;-51
2022/11/26 05:58:43;;;;;;;34.80;11.30;;;9.80;79.60;;;;;;2355637;57;22121;-53
2022/11/26 06:01:10;;;;;;;26.58;11.80;;;9.80;79.50;;;;;;2347347;57;21042;-49
2022/11/26 06:03:37;;;;;;;28.85;12.02;;;9.80;79.30;;;;;;2347077;57;21049;-52
2022/11/26 06:06:06;;;;;;;31.67;11.95;;;9.80;79.40;;;;;;2347048;57;21209;-52
2022/11/26 06:08:34;;;;;;;19.10;10.05;;;9.70;79.40;;;;;;2345322;57;21033;-52
2022/11/26 06:11:01;;;;;;;52.83;12.57;;;9.70;79.60;;;;;;2345784;57;21526;-55
2022/11/26 06:13:28;;;;;;;27.37;11.82;;;9.70;79.70;;;;;;2345939;57;21042;-50
2022/11/26 06:15:55;;;;;;;22.70;11.95;;;9.70;79.80;;;;;;2346108;57;21507;-50
2022/11/26 06:18:23;;;;;;;28.62;12.32;;;9.80;79.90;;;;;;2345752;57;21456;-49
2022/11/26 06:20:50;;;;;;;21.98;11.60;;;9.80;79.70;;;;;;2345510;57;21522;-50
2022/11/26 06:23:17;;;;;;;19.62;11.25;;;9.80;79.70;;;;;;2344563;57;21129;-47
2022/11/26 06:25:44;;;;;;;21.42;12.52;;;9.70;79.60;;;;;;2345729;57;21086;-53
2022/11/26 06:28:11;;;;;;;18.37;10.52;;;9.80;79.10;;;;;;2345591;57;21129;-56
2022/11/26 06:30:38;;;;;;;24.87;11.63;;;9.80;79.60;;;;;;2345758;57;21046;-51
2022/11/26 06:33:05;;;;;;;26.27;12.27;;;9.80;79.80;;;;;;2345876;57;21618;-52
2022/11/26 06:35:33;;;;;;;28.77;12.20;;;9.80;79.70;;;;;;2345764;57;21109;-54
2022/11/26 06:38:00;;;;;;;24.15;11.70;;;9.80;79.70;;;;;;2345294;57;21574;-52
2022/11/26 06:40:27;;;;;;;36.83;13.15;;;9.80;79.70;;;;;;2345179;57;21081;-48
2022/11/26 06:42:54;;;;;;;52.08;13.73;;;9.80;79.70;;;;;;2345206;57;21053;-49
2022/11/26 06:45:22;;;;;;;26.20;13.40;;;9.80;79.70;;;;;;2346052;57;21050;-53
2022/11/26 06:47:50;;;;;;;32.67;13.07;;;9.80;79.70;;;;;;2345865;57;21337;-52
2022/11/26 06:50:20;;;;;;;27.13;12.23;;;9.80;79.50;;;;;;2345581;57;21802;-56
2022/11/26 06:52:51;;;;;;;28.48;12.25;;;9.80;79.60;;;;;;2346304;57;21049;-48
2022/11/26 06:55:19;;;;;;;27.33;12.37;;;9.80;79.60;;;;;;2345227;57;21137;-53
2022/11/26 06:57:50;;;;;;;30.52;12.23;;;9.80;79.60;;;;;;2345799;57;21538;-49
2022/11/26 07:00:18;;;;;;;33.63;11.60;;;9.70;79.50;;;;;;2345756;57;21094;-53
2022/11/26 07:02:45;;;;;;;25.55;12.25;;;9.70;79.50;;;;;;2345442;57;21034;-51
2022/11/26 07:05:13;;;;;;;27.42;11.80;;;9.80;80.30;;;;;;2345640;57;21050;-49
2022/11/26 07:07:40;;;;;;;22.92;12.70;;;9.80;79.60;;;;;;2345155;57;21125;-50
2022/11/26 07:10:08;;;;;;;35.30;14.27;;;9.70;79.50;;;;;;2344398;57;21046;-50
2022/11/26 07:12:36;;;;;;;32.40;13.90;;;9.70;79.50;;;;;;2345108;57;21057;-50
2022/11/26 07:15:04;;;;;;;37.13;14.70;;;9.70;79.50;;;;;;2345822;57;21518;-49
2022/11/26 07:17:31;;;;;;;27.73;14.07;;;9.70;79.50;;;;;;2344799;57;21127;-50
2022/11/26 07:19:58;;;;;;;32.45;13.60;;;9.70;79.50;;;;;;2344717;57;21534;-50
2022/11/26 07:22:25;;;;;;;24.75;13.27;;;9.70;79.50;;;;;;2344356;57;21081;-49
2022/11/26 07:24:53;;;;;;;28.33;13.50;;;9.70;79.70;;;;;;2344941;57;21046;-48
2022/11/26 07:27:20;;;;;;;36.38;14.80;;;9.70;79.70;;;;;;2343561;57;21030;-50
2022/11/26 07:29:47;;;;;;;30.85;14.02;;;9.70;79.90;;;;;;2345346;57;21121;-54
2022/11/26 07:32:14;;;;;;;24.45;12.27;;;9.70;79.90;;;;;;2344695;57;21042;-52
2022/11/26 07:34:41;;;;;;;35.22;15.40;;;9.70;80.00;;;;;;2344878;57;21568;-52
2022/11/26 07:37:09;;;;;;;27.62;13.77;;;9.70;80.00;;;;;;2344777;57;21608;-51
2022/11/26 07:39:36;;;;;;;33.67;14.32;;;9.70;80.00;;;;;;2343823;57;21138;-48
2022/11/26 07:44:40;;;;;;;32.20;14.95;;;9.80;80.10;;;;;;2355812;57;22344;-49
2022/11/26 07:47:07;;;;;;;25.58;12.70;;;9.80;80.10;;;;;;2346107;57;21034;-49
2022/11/26 07:49:34;;;;;;;30.92;14.48;;;9.80;80.10;;;;;;2344847;57;21606;-51
2022/11/26 07:52:01;;;;;;;51.10;16.98;;;9.80;80.20;;;;;;2345129;57;21109;-54
2022/11/26 07:54:28;;;;;;;57.78;18.70;;;9.90;80.30;;;;;;2345529;57;21049;-53
2022/11/26 07:56:55;;;;;;;27.02;14.10;;;9.90;80.30;;;;;;2345937;57;21046;-52
2022/11/26 07:59:23;;;;;;;35.60;15.93;;;9.90;80.20;;;;;;2344596;57;21578;-52
2022/11/26 08:01:50;;;;;;;60.28;19.90;;;9.80;80.10;;;;;;2345238;57;21102;-54
2022/11/26 08:04:17;;;;;;;44.22;18.08;;;9.90;80.10;;;;;;2345919;57;21137;-54
2022/11/26 08:06:44;;;;;;;33.72;16.20;;;9.90;80.00;;;;;;2346421;57;21498;-52
2022/11/26 08:09:11;;;;;;;69.65;20.45;;;9.90;80.50;;;;;;2346674;57;21125;-53
2022/11/26 08:11:38;;;;;;;50.33;18.00;;;9.90;80.10;;;;;;2345603;57;21030;-52
2022/11/26 08:14:09;;;;;;;51.80;16.33;;;9.90;80.10;;;;;;2345607;57;21137;-50
2022/11/26 08:16:36;;;;;;;39.67;16.10;;;9.90;80.10;;;;;;2344669;57;21569;-52
2022/11/26 08:19:05;;;;;;;63.58;18.60;;;9.90;80.00;;;;;;2345598;57;21046;-49
2022/11/26 08:21:32;;;;;;;46.35;17.25;;;9.90;80.00;;;;;;2345227;57;21688;-49
2022/11/26 08:24:00;;;;;;;60.38;18.15;;;9.90;79.90;;;;;;2345583;57;21130;-49
2022/11/26 08:26:27;;;;;;;33.35;16.00;;;9.90;79.90;;;;;;2345796;57;21046;-52
2022/11/26 08:28:54;;;;;;;34.90;15.65;;;9.90;80.00;;;;;;2345352;57;21053;-50
2022/11/26 08:31:23;;;;;;;34.83;15.57;;;9.90;79.90;;;;;;2345586;57;21204;-49
2022/11/26 08:33:50;;;;;;;50.00;16.65;;;9.90;79.90;;;;;;2344762;57;21054;-49
2022/11/26 08:36:17;;;;;;;56.75;16.98;;;9.90;79.90;;;;;;2345462;57;21127;-49
2022/11/26 08:38:44;;;;;;;38.17;14.32;;;9.90;79.80;;;;;;2345542;57;21040;-50
2022/11/26 08:41:13;;;;;;;33.45;15.30;;;9.90;79.90;;;;;;2345437;57;21644;-53
2022/11/26 08:43:41;;;;;;;24.40;13.75;;;10.00;80.00;;;;;;2346285;57;21553;-52
2022/11/26 08:46:09;;;;;;;84.13;18.77;;;10.00;80.00;;;;;;2346262;57;21121;-49
2022/11/26 08:48:37;;;;;;;31.83;14.82;;;10.00;80.00;;;;;;2345959;57;21589;-50
2022/11/26 08:51:07;;;;;;;38.38;15.82;;;10.00;79.90;;;;;;2344911;57;21124;-52
2022/11/26 08:53:34;;;;;;;53.03;14.87;;;10.00;79.90;;;;;;2345602;57;21128;-53
2022/11/26 08:56:02;;;;;;;36.38;16.35;;;10.00;79.70;;;;;;2344755;57;21673;-49
2022/11/26 08:58:31;;;;;;;26.85;14.27;;;10.00;79.50;;;;;;2344380;57;21680;-53
2022/11/26 09:00:59;;;;;;;28.48;13.75;;;10.00;79.70;;;;;;2344606;57;21629;-49
2022/11/26 09:03:26;;;;;;;35.60;13.73;;;10.00;79.80;;;;;;2344332;57;21101;-53
2022/11/26 09:05:53;;;;;;;42.53;15.48;;;10.10;79.80;;;;;;2344102;57;21097;-49
2022/11/26 09:08:20;;;;;;;29.20;13.57;;;10.00;79.70;;;;;;2344968;57;21101;-52
2022/11/26 09:10:54;;;;;;;41.80;16.05;;;10.00;79.80;;;;;;2344353;57;21113;-53
2022/11/26 09:13:22;;;;;;;33.55;15.77;;;10.10;79.80;;;;;;2344551;57;21082;-50
2022/11/26 09:15:49;;;;;;;33.28;15.43;;;10.10;79.60;;;;;;2344413;57;21106;-53
2022/11/26 09:18:17;;;;;;;38.25;16.75;;;10.10;79.60;;;;;;2345380;57;21125;-51
2022/11/26 09:20:44;;;;;;;37.80;15.05;;;10.10;79.50;;;;;;2345475;57;21614;-52
2022/11/26 09:23:11;;;;;;;33.10;14.50;;;10.10;79.50;;;;;;2343658;57;21047;-51
2022/11/26 09:25:39;;;;;;;38.90;17.60;;;10.10;79.50;;;;;;2344571;57;21026;-51
2022/11/26 09:28:06;;;;;;;35.17;16.05;;;10.10;79.60;;;;;;2344314;57;21517;-52
2022/11/26 09:30:33;;;;;;;35.13;16.52;;;10.10;79.50;;;;;;2344836;57;21341;-53
2022/11/26 09:33:00;;;;;;;39.83;15.68;;;10.10;79.60;;;;;;2344090;57;21058;-52
2022/11/26 09:35:28;;;;;;;39.95;16.50;;;10.10;79.70;;;;;;2345080;57;21125;-55
2022/11/26 09:37:55;;;;;;;35.28;15.18;;;10.10;79.70;;;;;;2345964;57;21586;-51
2022/11/26 09:40:30;;;;;;;43.22;16.40;;;10.20;79.70;;;;;;2345490;57;21122;-51
2022/11/26 09:43:04;;;;;;;37.85;16.20;;;10.20;79.70;;;;;;2345128;57;21545;-52
2022/11/26 09:45:40;;;;;;;31.83;15.27;;;10.20;79.50;;;;;;2344379;57;21622;-51
2022/11/26 09:48:15;;;;;;;31.60;14.57;;;10.20;79.50;;;;;;2344999;57;21037;-49
2022/11/26 09:50:43;;;;;;;39.85;17.75;;;10.10;79.50;;;;;;2344775;57;21649;-52
2022/11/26 09:53:18;;;;;;;38.65;16.00;;;10.20;79.30;;;;;;2344466;57;21570;-51
2022/11/26 09:55:49;;;;;;;38.22;16.85;;;10.20;79.40;;;;;;2344699;57;21537;-53
2022/11/26 09:58:21;;;;;;;41.50;17.35;;;10.20;79.10;;;;;;2344226;57;21098;-51
2022/11/26 10:00:49;;;;;;;35.40;16.73;;;10.20;79.00;;;;;;2344000;57;21526;-52
2022/11/26 10:03:18;;;;;;;40.15;18.23;;;10.20;79.10;;;;;;2344549;57;21665;-49
2022/11/26 10:05:53;;;;;;;41.67;16.48;;;10.20;79.10;;;;;;2344871;57;21704;-49
2022/11/26 10:08:36;;;;;;;33.88;17.25;;;10.20;79.50;;;;;;2344769;57;21518;-51
2022/11/26 10:11:10;;;;;;;37.28;18.10;;;10.20;79.70;;;;;;2344628;57;21514;-51
2022/11/26 10:13:44;;;;;;;42.55;19.40;;;10.20;79.70;;;;;;2343662;57;21522;-51
2022/11/26 10:16:21;;;;;;;45.45;18.48;;;10.20;79.40;;;;;;2344840;57;21601;-50
2022/11/26 10:18:59;;;;;;;40.92;17.52;;;10.10;79.40;;;;;;2345653;57;21014;-54
2022/11/26 10:21:28;;;;;;;44.42;19.77;;;10.10;79.60;;;;;;2344695;57;21049;-50
2022/11/26 10:23:59;;;;;;;42.28;20.08;;;10.20;79.70;;;;;;2344250;57;21652;-50
2022/11/26 10:26:31;;;;;;;60.33;21.33;;;10.20;79.80;;;;;;2344821;57;21108;-51
2022/11/26 10:29:19;;;;;;;36.65;18.50;;;10.20;79.60;;;;;;2344647;57;21119;-51
2022/11/26 10:31:48;;;;;;;49.53;20.15;;;10.20;79.40;;;;;;2344634;57;21538;-50
2022/11/26 10:34:19;;;;;;;49.28;20.45;;;10.30;79.50;;;;;;2344750;57;21520;-52
2022/11/26 10:36:48;;;;;;;46.35;20.62;;;10.20;79.50;;;;;;2345175;57;21145;-52
2022/11/26 10:39:18;;;;;;;53.20;21.77;;;10.20;79.60;;;;;;2344640;57;21546;-49
2022/11/26 10:41:45;;;;;;;48.30;19.20;;;10.20;79.50;;;;;;2344805;57;21030;-51
2022/11/26 10:44:35;;;;;;;52.92;22.35;;;10.30;79.50;;;;;;2344245;57;21134;-50
2022/11/26 10:47:23;;;;;;;55.33;23.02;;;10.20;79.60;;;;;;2344792;57;21045;-52
2022/11/26 10:49:51;;;;;;;56.75;25.10;;;10.20;79.70;;;;;;2344202;57;21042;-52
2022/11/26 10:52:22;;;;;;;48.92;20.88;;;10.20;79.80;;;;;;2345755;57;21495;-50
2022/11/26 10:55:17;;;;;;;46.53;22.33;;;10.30;80.00;;;;;;2345689;57;21019;-51
2022/11/26 10:57:49;;;;;;;66.20;24.52;;;10.30;80.00;;;;;;2345765;57;21081;-52
2022/11/26 11:00:37;;;;;;;50.47;22.70;;;10.40;80.10;;;;;;2344753;57;21038;-49
2022/11/26 11:03:13;;;;;;;54.13;22.95;;;10.40;80.20;;;;;;2344343;57;21058;-51
2022/11/26 11:05:43;;;;;;;45.30;20.77;;;10.40;80.30;;;;;;2343989;57;21513;-52
2022/11/26 11:08:13;;;;;;;44.83;21.12;;;10.40;80.50;;;;;;2344495;57;21134;-51
2022/11/26 11:10:53;;;;;;;49.75;23.52;;;10.40;80.60;;;;;;2345026;57;21565;-54
2022/11/26 11:13:22;;;;;;;49.83;24.52;;;10.40;80.30;;;;;;2345069;57;21026;-50
2022/11/26 11:16:01;;;;;;;53.72;22.35;;;10.50;80.40;;;;;;2344751;57;21058;-53
2022/11/26 11:18:29;;;;;;;47.78;22.45;;;10.40;80.50;;;;;;2344726;57;21029;-50
2022/11/26 11:20:59;;;;;;;60.88;25.70;;;10.50;80.70;;;;;;2343902;57;21550;-55
2022/11/26 11:23:29;;;;;;;45.10;22.58;;;10.50;80.80;;;;;;2344364;57;21055;-53
2022/11/26 11:26:02;;;;;;;38.40;19.87;;;10.50;80.80;;;;;;2344612;57;21522;-52
2022/11/26 11:28:32;;;;;;;55.60;25.08;;;10.50;81.00;;;;;;2344954;57;21049;-51
2022/11/26 11:31:07;;;;;;;50.45;23.55;;;10.60;81.00;;;;;;2345315;57;21586;-52
2022/11/26 11:33:35;;;;;;;39.88;22.15;;;10.60;81.10;;;;;;2345777;57;21026;-51
2022/11/26 11:36:16;;;;;;;45.47;22.58;;;10.60;81.00;;;;;;2345282;57;21609;-51
2022/11/26 11:38:49;;;;;;;46.37;22.35;;;10.70;80.90;;;;;;2344052;57;21109;-53
2022/11/26 11:41:27;;;;;;;46.15;21.25;;;10.70;80.80;;;;;;2344483;57;21085;-50
2022/11/26 11:44:01;;;;;;;42.47;20.92;;;10.70;80.80;;;;;;2344358;57;21034;-51
2022/11/26 11:46:53;;;;;;;44.35;20.83;;;10.80;80.80;;;;;;2344254;57;21129;-51
2022/11/26 11:49:31;;;;;;;43.70;21.67;;;10.80;80.70;;;;;;2345217;57;21541;-50
2022/11/26 11:52:11;;;;;;;41.63;21.27;;;10.80;80.70;;;;;;2345207;57;21537;-49
2022/11/26 11:54:51;;;;;;;41.92;21.23;;;10.80;80.60;;;;;;2344519;57;21629;-51
2022/11/26 11:57:30;;;;;;;44.25;21.08;;;10.80;80.70;;;;;;2343991;57;21050;-49
2022/11/26 12:00:10;;;;;;;39.00;21.17;;;10.90;80.80;;;;;;2344475;57;21601;-52
2022/11/26 12:03:12;;;;;;;50.25;22.75;;;10.90;80.70;;;;;;2344172;57;21096;-51
2022/11/26 12:09:06;;;;;;;47.95;22.02;;;11.00;80.30;;;;;;2355790;57;22070;-49
2022/11/26 12:11:44;;;;;;;47.72;21.90;;;11.00;80.00;;;;;;2348252;57;21030;-49
2022/11/26 12:14:18;;;;;;;42.80;21.33;;;11.00;79.90;;;;;;2347491;57;21168;-50
2022/11/26 12:16:49;;;;;;;45.40;20.67;;;11.00;79.70;;;;;;2346368;57;21142;-51
2022/11/26 12:19:24;;;;;;;37.25;19.87;;;11.00;79.90;;;;;;2345445;57;21522;-51
2022/11/26 12:21:58;;;;;;;41.40;17.70;;;11.00;79.80;;;;;;2345800;57;21708;-50
2022/11/26 12:24:35;;;;;;;38.88;17.50;;;11.00;79.90;;;;;;2345058;57;21106;-51
2022/11/26 12:27:08;;;;;;;53.60;19.85;;;11.00;79.00;;;;;;2346187;57;21053;-47
2022/11/26 12:29:40;;;;;;;43.60;19.50;;;11.00;79.00;;;;;;2345954;57;21552;-52
2022/11/26 12:32:14;;;;;;;41.53;16.35;;;11.00;79.00;;;;;;2344782;57;21537;-55
2022/11/26 12:34:47;;;;;;;52.10;19.77;;;11.00;78.80;;;;;;2345110;57;21022;-52
2022/11/26 12:37:19;;;;;;;40.22;16.80;;;11.00;79.00;;;;;;2345953;57;21026;-50
2022/11/26 12:39:55;;;;;;;34.70;16.30;;;10.90;79.00;;;;;;2345713;57;21533;-51
2022/11/26 12:42:29;;;;;;;31.08;15.80;;;10.90;79.20;;;;;;2345347;57;21531;-53
2022/11/26 12:45:11;;;;;;;36.15;15.77;;;10.90;79.40;;;;;;2345272;57;21522;-50
2022/11/26 12:47:43;;;;;;;34.95;16.35;;;11.00;79.50;;;;;;2345638;57;21637;-52
2022/11/26 12:50:19;;;;;;;33.25;16.37;;;11.00;79.50;;;;;;2345452;57;21553;-53
2022/11/26 12:52:53;;;;;;;33.80;15.95;;;11.00;79.30;;;;;;2345519;57;21164;-49
2022/11/26 12:55:25;;;;;;;33.38;15.85;;;11.00;79.50;;;;;;2345614;57;21557;-52
2022/11/26 12:57:57;;;;;;;44.42;17.08;;;11.00;79.50;;;;;;2346161;56;21142;-50
2022/11/26 13:00:30;;;;;;;33.03;14.18;;;11.00;79.30;;;;;;2345268;57;21094;-48
2022/11/26 13:02:57;;;;;;;30.55;15.90;;;11.10;80.10;;;;;;2345303;57;21542;-53
2022/11/26 13:05:32;;;;;;;31.73;15.65;;;11.10;79.00;;;;;;2346461;57;21534;-52